Time;durP1;ratioP1;P1;durP2;ratioP2;P2;SDS_P1;SDS_P2;PMS_P1;PMS_P2;Temp;Humidity;BMP_temperature;BMP_pressure;BME280_temperature;BME280_humidity;BME280_pressure;Samples;Min_cycle;Max_cycle;Signal;HPM_P1;HPM_P2
2023/06/12 00:01:02;;;;;;;10.33;4.27;;;15.50;1.00;;;;;;5011637;28;20214;-54
2023/06/12 00:03:28;;;;;;;7.03;4.80;;;15.40;1.00;;;;;;5012612;28;20194;-55
2023/06/12 00:05:59;;;;;;;7.97;4.20;;;15.40;1.00;;;;;;5012297;28;20435;-53
2023/06/12 00:08:28;;;;;;;5.77;3.83;;;15.40;1.00;;;;;;5011797;28;20912;-53
2023/06/12 00:10:55;;;;;;;5.80;4.60;;;15.40;1.00;;;;;;5012444;28;20424;-54
2023/06/12 00:13:20;;;;;;;10.23;4.50;;;15.40;1.00;;;;;;5011661;28;20912;-54
2023/06/12 00:15:46;;;;;;;9.67;4.30;;;15.40;1.00;;;;;;5012548;28;20427;-54
2023/06/12 00:18:12;;;;;;;14.20;5.10;;;15.40;1.00;;;;;;5012339;28;20665;-51
2023/06/12 00:20:38;;;;;;;11.43;4.27;;;15.40;1.00;;;;;;5011523;28;20578;-54
2023/06/12 00:23:04;;;;;;;9.23;4.80;;;15.30;1.00;;;;;;5011816;28;20192;-54
2023/06/12 00:25:30;;;;;;;9.83;4.53;;;15.20;1.00;;;;;;5012203;28;20198;-55
2023/06/12 00:27:56;;;;;;;7.37;4.30;;;15.20;1.00;;;;;;5011808;28;20420;-53
2023/06/12 00:30:21;;;;;;;8.60;4.43;;;15.20;1.00;;;;;;5011807;28;20417;-56
2023/06/12 00:32:47;;;;;;;4.80;3.87;;;15.20;1.00;;;;;;5012510;28;20320;-53
2023/06/12 00:35:19;;;;;;;7.37;4.07;;;15.20;1.00;;;;;;5011546;28;20182;-56
2023/06/12 00:37:48;;;;;;;8.83;3.80;;;15.10;1.00;;;;;;5012051;28;20181;-54
2023/06/12 00:40:15;;;;;;;9.17;4.37;;;15.10;1.00;;;;;;5012299;28;20470;-54
2023/06/12 00:42:45;;;;;;;9.57;4.20;;;15.10;1.00;;;;;;5011589;28;20430;-55
2023/06/12 00:45:16;;;;;;;11.80;4.60;;;15.10;1.00;;;;;;5012055;28;20772;-54
2023/06/12 00:47:42;;;;;;;8.10;4.23;;;15.10;1.00;;;;;;5011799;28;20419;-53
2023/06/12 00:50:12;;;;;;;11.87;4.70;;;15.10;1.00;;;;;;5011287;28;20428;-53
2023/06/12 00:52:43;;;;;;;8.83;4.13;;;15.00;1.00;;;;;;5011687;28;20474;-54
2023/06/12 00:55:09;;;;;;;6.40;4.60;;;15.00;1.00;;;;;;5013567;28;20416;-54
2023/06/12 00:57:36;;;;;;;6.90;4.40;;;15.00;1.00;;;;;;5015120;28;20506;-54
2023/06/12 01:00:05;;;;;;;7.73;3.93;;;14.90;1.00;;;;;;5015044;28;20542;-53
2023/06/12 01:02:32;;;;;;;10.70;4.60;;;14.90;1.00;;;;;;5015916;28;20415;-54
2023/06/12 01:04:57;;;;;;;8.80;4.50;;;14.90;1.00;;;;;;5015218;28;20421;-54
2023/06/12 01:07:43;;;;;;;9.10;4.47;;;14.90;1.00;;;;;;5015384;28;20500;-54
2023/06/12 01:10:28;;;;;;;5.67;4.03;;;14.80;1.00;;;;;;5015125;28;20201;-53
2023/06/12 01:12:54;;;;;;;8.37;4.90;;;14.80;1.00;;;;;;5015612;28;20416;-55
2023/06/12 01:15:20;;;;;;;9.20;4.90;;;14.80;1.00;;;;;;5015304;28;20416;-52
2023/06/12 01:17:46;;;;;;;6.30;4.60;;;14.80;1.00;;;;;;5015610;28;20426;-53
2023/06/12 01:20:12;;;;;;;5.60;4.00;;;14.80;1.00;;;;;;5014545;28;20215;-55
2023/06/12 01:22:43;;;;;;;7.13;4.13;;;14.80;1.00;;;;;;5014742;28;20196;-55
2023/06/12 01:25:40;;;;;;;6.97;4.23;;;14.70;1.00;;;;;;5015185;28;20417;-54
2023/06/12 01:28:27;;;;;;;14.50;4.57;;;14.70;1.00;;;;;;5005769;28;20434;-54
2023/06/12 01:31:13;;;;;;;7.17;4.43;;;14.60;1.00;;;;;;5014561;28;20415;-55
2023/06/12 01:33:42;;;;;;;6.90;4.30;;;14.50;1.00;;;;;;5015307;28;20419;-54
2023/06/12 01:36:19;;;;;;;8.87;4.70;;;14.60;1.00;;;;;;5014541;28;20423;-56
2023/06/12 01:38:52;;;;;;;5.87;4.40;;;14.60;1.00;;;;;;5015191;28;20419;-54
2023/06/12 01:41:20;;;;;;;10.03;5.00;;;14.70;1.00;;;;;;5015371;28;20455;-55
2023/06/12 01:43:45;;;;;;;5.60;4.33;;;14.60;1.00;;;;;;5014575;28;20512;-55
2023/06/12 01:46:11;;;;;;;8.77;4.30;;;14.60;1.00;;;;;;5014773;28;20519;-54
2023/06/12 01:48:38;;;;;;;8.70;4.43;;;14.60;1.00;;;;;;5014633;28;20197;-54
2023/06/12 01:51:04;;;;;;;5.70;4.40;;;14.50;1.00;;;;;;5014511;28;20256;-54
2023/06/12 01:53:30;;;;;;;5.30;4.27;;;14.50;1.00;;;;;;5014373;28;20480;-55
2023/06/12 01:55:56;;;;;;;10.60;5.73;;;14.50;1.00;;;;;;5014815;28;20188;-53
2023/06/12 01:58:21;;;;;;;8.40;4.30;;;14.40;1.00;;;;;;5014147;28;20601;-54
2023/06/12 02:00:47;;;;;;;6.97;4.13;;;14.50;1.00;;;;;;5014485;28;20484;-55
2023/06/12 02:03:12;;;;;;;8.40;4.43;;;14.50;1.00;;;;;;5014169;28;20568;-55
2023/06/12 02:05:38;;;;;;;9.27;4.70;;;14.50;1.00;;;;;;5014083;28;20182;-55
2023/06/12 02:08:03;;;;;;;8.37;5.37;;;14.40;1.00;;;;;;5013289;28;20182;-54
2023/06/12 02:10:29;;;;;;;11.03;4.50;;;14.40;1.00;;;;;;5014555;28;20219;-54
2023/06/12 02:12:55;;;;;;;6.50;4.40;;;14.40;1.00;;;;;;5014073;28;20181;-53
2023/06/12 02:15:20;;;;;;;10.27;4.77;;;14.40;1.00;;;;;;5014104;28;20223;-53
2023/06/12 02:17:46;;;;;;;10.27;4.80;;;14.40;1.00;;;;;;5014474;28;20181;-54
2023/06/12 02:20:12;;;;;;;11.77;4.83;;;14.30;1.00;;;;;;5014001;28;20552;-56
2023/06/12 02:22:37;;;;;;;13.33;5.13;;;14.30;1.00;;;;;;5013566;28;20189;-55
2023/06/12 02:25:03;;;;;;;8.00;5.33;;;14.20;1.00;;;;;;5014234;28;20205;-57
2023/06/12 02:27:29;;;;;;;5.70;4.37;;;14.20;1.00;;;;;;5013594;28;20671;-55
2023/06/12 02:29:55;;;;;;;12.17;4.80;;;14.20;1.00;;;;;;5014174;28;20421;-55
2023/06/12 02:32:20;;;;;;;6.00;5.10;;;14.20;1.00;;;;;;5013585;28;20447;-54
2023/06/12 02:34:47;;;;;;;7.23;5.00;;;14.20;1.00;;;;;;5013661;28;20180;-56
2023/06/12 02:37:12;;;;;;;8.40;4.80;;;14.20;1.00;;;;;;5013758;28;20189;-54
2023/06/12 02:39:38;;;;;;;7.10;4.97;;;14.20;1.00;;;;;;5014057;28;20542;-54
2023/06/12 02:42:04;;;;;;;7.40;5.00;;;14.20;1.00;;;;;;5013680;28;20188;-54
2023/06/12 02:44:29;;;;;;;9.07;5.47;;;14.20;1.00;;;;;;5012833;28;20632;-53
2023/06/12 02:47:00;;;;;;;8.70;4.80;;;14.20;1.00;;;;;;5013508;28;20260;-54
2023/06/12 02:49:29;;;;;;;8.00;5.10;;;14.10;1.00;;;;;;5013750;28;20181;-53
2023/06/12 02:51:56;;;;;;;17.60;4.87;;;14.10;1.00;;;;;;5012936;28;20912;-53
2023/06/12 02:54:23;;;;;;;6.63;4.90;;;14.20;1.00;;;;;;5013510;28;20408;-54
2023/06/12 02:56:49;;;;;;;14.00;5.43;;;14.10;1.00;;;;;;5013877;28;20421;-53
2023/06/12 02:59:16;;;;;;;6.63;4.63;;;14.10;1.00;;;;;;5013258;28;20403;-54
2023/06/12 03:01:45;;;;;;;7.73;5.40;;;14.20;1.00;;;;;;5013221;28;20181;-53
2023/06/12 03:04:22;;;;;;;8.40;4.93;;;14.10;1.00;;;;;;5013248;28;20473;-55
2023/06/12 03:06:52;;;;;;;11.23;4.83;;;14.20;1.00;;;;;;5013084;28;20412;-54
2023/06/12 03:09:18;;;;;;;10.73;5.47;;;14.10;1.00;;;;;;5013191;28;20424;-54
2023/06/12 03:11:44;;;;;;;8.77;4.90;;;14.10;1.00;;;;;;5013382;28;20423;-53
2023/06/12 03:14:12;;;;;;;6.57;5.23;;;14.10;1.00;;;;;;5013397;28;20431;-55
2023/06/12 03:16:38;;;;;;;6.57;4.77;;;14.10;1.00;;;;;;5013116;28;20469;-55
2023/06/12 03:19:04;;;;;;;9.63;5.43;;;14.10;1.00;;;;;;5012297;28;20421;-54
2023/06/12 03:21:30;;;;;;;9.30;5.67;;;14.20;1.00;;;;;;5013057;28;20883;-55
2023/06/12 03:23:56;;;;;;;10.47;5.33;;;14.20;1.00;;;;;;5012716;28;20665;-54
2023/06/12 03:26:22;;;;;;;10.67;5.33;;;14.20;1.00;;;;;;5012731;28;20275;-53
2023/06/12 03:28:48;;;;;;;6.40;5.33;;;14.20;1.00;;;;;;5013375;28;20498;-56
2023/06/12 03:31:14;;;;;;;12.77;5.87;;;14.20;1.00;;;;;;5012618;28;20514;-55
2023/06/12 03:33:39;;;;;;;8.80;5.40;;;14.20;1.00;;;;;;5013038;28;20701;-54
2023/06/12 03:36:05;;;;;;;8.13;5.00;;;14.20;1.00;;;;;;5012211;28;20519;-54
2023/06/12 03:38:31;;;;;;;8.73;5.20;;;14.20;1.00;;;;;;5012965;28;20186;-55
2023/06/12 03:40:56;;;;;;;8.70;4.90;;;14.20;1.00;;;;;;5012194;28;20555;-54
2023/06/12 03:43:22;;;;;;;10.43;5.37;;;14.20;1.00;;;;;;5012874;28;20194;-56
2023/06/12 03:45:48;;;;;;;11.30;5.03;;;14.20;1.00;;;;;;5013264;28;20257;-55
2023/06/12 03:48:14;;;;;;;6.70;5.00;;;14.20;1.00;;;;;;5012242;28;20663;-53
2023/06/12 03:50:39;;;;;;;14.93;5.60;;;14.30;1.00;;;;;;5012559;28;20447;-55
2023/06/12 03:53:05;;;;;;;7.30;4.60;;;14.30;1.00;;;;;;5011885;28;20241;-55
2023/06/12 03:55:32;;;;;;;7.63;5.70;;;14.40;1.00;;;;;;5012437;28;20189;-53
2023/06/12 03:57:57;;;;;;;16.07;5.67;;;14.40;1.00;;;;;;5012155;28;20216;-54
2023/06/12 04:00:23;;;;;;;11.53;5.20;;;14.50;1.00;;;;;;5011945;28;20987;-55
2023/06/12 04:02:48;;;;;;;8.10;4.90;;;14.60;1.00;;;;;;5011997;28;20263;-53
2023/06/12 04:05:14;;;;;;;9.97;5.17;;;14.70;1.00;;;;;;5012629;28;20186;-55
2023/06/12 04:07:40;;;;;;;9.50;5.20;;;14.80;1.00;;;;;;5012375;28;20212;-54
2023/06/12 04:10:09;;;;;;;9.20;5.07;;;14.80;1.00;;;;;;5011562;28;20243;-54
2023/06/12 04:12:35;;;;;;;12.20;8.23;;;14.80;1.00;;;;;;5012195;28;20645;-54
2023/06/12 04:15:02;;;;;;;10.27;6.00;;;14.90;1.00;;;;;;5012108;28;20428;-54
2023/06/12 04:17:29;;;;;;;8.93;5.90;;;14.90;1.00;;;;;;5012387;28;20194;-54
2023/06/12 04:19:56;;;;;;;11.10;5.50;;;14.90;1.00;;;;;;5011802;28;20468;-54
2023/06/12 04:22:25;;;;;;;10.30;5.63;;;15.00;1.00;;;;;;5012113;28;20456;-55
2023/06/12 04:24:54;;;;;;;6.90;5.80;;;15.00;1.00;;;;;;5011908;28;20422;-53
2023/06/12 04:27:20;;;;;;;12.10;6.20;;;15.10;1.00;;;;;;5011827;28;20417;-55
2023/06/12 04:29:46;;;;;;;15.67;6.10;;;15.20;1.00;;;;;;5013652;28;20932;-53
2023/06/12 04:32:13;;;;;;;8.03;5.60;;;15.20;1.00;;;;;;5016189;28;20209;-54
2023/06/12 04:34:40;;;;;;;14.13;6.23;;;15.20;1.00;;;;;;5016034;28;20467;-53
2023/06/12 04:37:08;;;;;;;10.77;6.00;;;15.20;1.00;;;;;;5015956;28;20416;-54
2023/06/12 04:39:38;;;;;;;14.03;5.53;;;15.30;1.00;;;;;;5016142;28;20452;-54
2023/06/12 04:42:05;;;;;;;22.03;6.13;;;15.30;1.00;;;;;;5016018;28;20559;-53
2023/06/12 04:44:34;;;;;;;8.97;6.20;;;15.40;1.00;;;;;;5015818;28;20435;-54
2023/06/12 04:47:02;;;;;;;9.43;5.87;;;15.50;1.00;;;;;;5015885;28;20517;-55
2023/06/12 04:49:27;;;;;;;7.87;6.20;;;15.60;1.00;;;;;;5015193;28;20426;-54
2023/06/12 04:51:54;;;;;;;8.33;6.80;;;15.60;1.00;;;;;;5015512;28;20420;-55
2023/06/12 04:54:19;;;;;;;11.50;6.60;;;15.80;1.00;;;;;;5016201;28;20178;-55
2023/06/12 04:56:47;;;;;;;10.43;5.83;;;16.00;1.00;;;;;;5015423;28;20431;-55
2023/06/12 04:59:16;;;;;;;15.03;6.83;;;16.10;1.00;;;;;;5015715;28;20186;-54
2023/06/12 05:01:44;;;;;;;11.90;6.33;;;16.20;1.00;;;;;;5015868;28;20425;-55
2023/06/12 05:04:10;;;;;;;7.40;6.37;;;16.10;1.00;;;;;;5014773;28;21121;-55
2023/06/12 05:06:37;;;;;;;9.20;6.47;;;16.10;1.00;;;;;;5015732;28;20507;-53
2023/06/12 05:09:06;;;;;;;7.47;6.43;;;16.10;1.00;;;;;;5015467;28;20194;-54
2023/06/12 05:11:32;;;;;;;11.03;6.40;;;16.10;1.00;;;;;;5015276;28;20791;-54
2023/06/12 05:13:58;;;;;;;12.23;6.60;;;16.20;1.00;;;;;;5014934;28;20418;-54
2023/06/12 05:16:23;;;;;;;13.33;6.17;;;16.20;1.00;;;;;;5015633;28;20719;-54
2023/06/12 05:18:49;;;;;;;12.87;7.13;;;16.20;1.00;;;;;;5015270;28;20178;-53
2023/06/12 05:21:15;;;;;;;8.33;6.30;;;16.30;1.00;;;;;;5014921;28;20217;-55
2023/06/12 05:23:41;;;;;;;9.43;6.27;;;16.40;1.00;;;;;;5015328;28;20288;-54
2023/06/12 05:26:07;;;;;;;6.97;6.20;;;16.60;1.00;;;;;;5015074;28;20975;-54
2023/06/12 05:28:32;;;;;;;7.83;6.20;;;16.70;1.00;;;;;;5014467;28;20200;-54
2023/06/12 05:30:58;;;;;;;8.53;6.30;;;16.70;1.00;;;;;;5015339;28;20220;-53
2023/06/12 05:33:23;;;;;;;15.10;6.63;;;16.90;1.00;;;;;;5015297;28;20682;-53
2023/06/12 05:35:49;;;;;;;11.23;6.60;;;17.20;1.00;;;;;;5015244;28;20180;-54
2023/06/12 05:38:15;;;;;;;10.30;6.17;;;17.60;1.00;;;;;;5014786;28;20519;-55
2023/06/12 05:40:41;;;;;;;9.00;6.63;;;18.00;1.00;;;;;;5013730;28;20229;-53
2023/06/12 05:43:06;;;;;;;16.00;6.33;;;18.10;1.00;;;;;;5013936;28;20446;-54
2023/06/12 05:45:32;;;;;;;12.40;6.77;;;18.20;1.00;;;;;;5014330;28;20277;-53
2023/06/12 05:47:57;;;;;;;11.00;6.67;;;18.50;1.00;;;;;;5014659;28;20184;-54
2023/06/12 05:50:23;;;;;;;16.23;7.10;;;18.50;1.00;;;;;;5014441;28;20270;-53
2023/06/12 05:52:50;;;;;;;11.20;6.90;;;18.70;1.00;;;;;;5014578;28;20242;-53
2023/06/12 05:55:17;;;;;;;10.87;6.67;;;19.00;1.00;;;;;;5014737;28;20187;-54
2023/06/12 05:57:42;;;;;;;9.00;6.77;;;19.50;1.00;;;;;;5014756;28;20447;-52
2023/06/12 06:00:10;;;;;;;10.37;6.63;;;19.60;1.00;;;;;;5014551;28;20990;-54
2023/06/12 06:02:37;;;;;;;13.20;6.50;;;19.90;1.00;;;;;;5012971;28;20273;-54
2023/06/12 06:05:02;;;;;;;10.90;6.33;;;20.00;1.00;;;;;;5014125;28;20422;-54
2023/06/12 06:07:28;;;;;;;8.30;6.40;;;20.20;1.00;;;;;;5014462;28;20430;-54
2023/06/12 06:09:54;;;;;;;10.93;7.67;;;20.20;1.00;;;;;;5014371;28;20298;-53
2023/06/12 06:12:20;;;;;;;12.53;6.53;;;20.20;99.90;;;;;;5014638;28;20425;-54
2023/06/12 06:14:45;;;;;;;13.00;7.23;;;20.00;99.90;;;;;;5013810;28;20182;-53
2023/06/12 06:17:11;;;;;;;10.23;7.07;;;19.80;99.90;;;;;;5013638;28;20183;-53
2023/06/12 06:19:36;;;;;;;11.03;7.10;;;19.70;99.90;;;;;;5014030;28;20249;-53
2023/06/12 06:22:04;;;;;;;12.13;6.67;;;19.80;99.90;;;;;;5014097;28;20184;-53
2023/06/12 06:24:30;;;;;;;8.57;6.60;;;20.20;99.90;;;;;;5014288;28;20189;-53
2023/06/12 06:26:55;;;;;;;12.07;6.83;;;20.60;99.90;;;;;;5013660;28;20509;-54
2023/06/12 06:29:21;;;;;;;13.30;6.90;;;21.10;99.90;;;;;;5013753;28;20614;-53
2023/06/12 06:31:47;;;;;;;17.33;7.83;;;21.50;99.90;;;;;;5014206;28;20184;-53
2023/06/12 06:34:13;;;;;;;11.60;6.97;;;21.80;99.90;;;;;;5013343;28;20535;-54
2023/06/12 06:36:39;;;;;;;10.63;7.27;;;22.10;99.90;;;;;;5014075;28;20234;-54
2023/06/12 06:39:05;;;;;;;11.40;7.80;;;22.40;99.90;;;;;;5014137;28;20408;-52
2023/06/12 06:41:30;;;;;;;10.70;7.33;;;22.70;99.90;;;;;;5013385;28;20212;-52
2023/06/12 06:43:56;;;;;;;10.13;7.50;;;23.10;99.90;;;;;;5012836;28;20322;-52
2023/06/12 06:46:21;;;;;;;15.07;7.47;;;23.40;99.90;;;;;;5013463;28;20638;-51
2023/06/12 06:48:47;;;;;;;10.23;7.10;;;23.70;99.90;;;;;;5013309;28;20684;-51
2023/06/12 06:51:12;;;;;;;10.43;6.70;;;24.00;99.90;;;;;;5011547;28;20506;-51
2023/06/12 06:53:38;;;;;;;10.33;7.23;;;24.10;99.90;;;;;;5011850;28;20240;-52
2023/06/12 06:56:04;;;;;;;11.80;7.30;;;24.20;99.90;;;;;;5012621;28;20321;-51
2023/06/12 06:58:30;;;;;;;12.20;7.28;;;24.30;99.90;;;;;;5012694;28;20445;-52
2023/06/12 07:00:55;;;;;;;9.23;6.90;;;24.60;99.90;;;;;;5013265;28;20690;-53
2023/06/12 07:03:21;;;;;;;12.10;6.50;;;24.80;99.90;;;;;;5013000;28;20187;-52
2023/06/12 07:05:47;;;;;;;11.00;7.40;;;25.10;99.90;;;;;;5012982;28;20187;-52
2023/06/12 07:08:12;;;;;;;11.53;7.30;;;25.40;99.90;;;;;;5013138;28;20188;-53
2023/06/12 07:10:38;;;;;;;12.87;6.30;;;25.70;99.90;;;;;;5011826;28;20414;-53
2023/06/12 07:13:04;;;;;;;10.10;6.90;;;25.90;99.90;;;;;;5012765;28;20194;-51
2023/06/12 07:15:30;;;;;;;15.80;7.30;;;26.00;99.90;;;;;;5012027;28;20279;-52
2023/06/12 07:17:55;;;;;;;19.43;6.87;;;26.10;99.90;;;;;;5012518;28;20502;-51
2023/06/12 07:20:21;;;;;;;10.97;7.00;;;26.30;99.90;;;;;;5012718;28;20207;-51
2023/06/12 07:22:46;;;;;;;12.57;6.63;;;26.30;99.90;;;;;;5012962;28;20589;-51
2023/06/12 07:25:12;;;;;;;13.43;6.40;;;26.30;99.90;;;;;;5012388;28;20270;-51
2023/06/12 07:27:38;;;;;;;12.60;6.80;;;26.40;99.90;;;;;;5012715;28;20192;-51
2023/06/12 07:30:05;;;;;;;11.67;7.63;;;26.50;99.90;;;;;;5012273;28;20188;-52
2023/06/12 07:32:31;;;;;;;12.47;6.77;;;26.60;99.90;;;;;;5012134;28;20199;-51
2023/06/12 07:34:56;;;;;;;8.97;6.63;;;26.80;99.90;;;;;;5012396;28;20415;-51
2023/06/12 07:37:23;;;;;;;9.10;6.27;;;27.10;99.90;;;;;;5011906;28;20664;-50
2023/06/12 07:39:48;;;;;;;7.93;6.60;;;27.40;99.90;;;;;;5012084;28;20219;-51
2023/06/12 07:42:14;;;;;;;9.70;6.50;;;27.50;99.90;;;;;;5012131;28;20779;-51
2023/06/12 07:44:40;;;;;;;7.73;6.63;;;27.80;99.90;;;;;;5012203;28;20524;-51
2023/06/12 07:47:06;;;;;;;9.40;6.60;;;28.10;99.90;;;;;;5011715;28;20184;-52
2023/06/12 07:49:32;;;;;;;6.97;6.27;;;28.50;99.90;;;;;;5011600;28;20242;-52
2023/06/12 07:51:58;;;;;;;8.40;6.57;;;28.70;99.90;;;;;;5011368;28;20415;-52
2023/06/12 07:54:23;;;;;;;11.77;6.90;;;28.80;99.90;;;;;;5011905;28;20937;-52
2023/06/12 07:56:51;;;;;;;8.63;5.97;;;28.80;99.90;;;;;;5011684;28;20720;-52
2023/06/12 07:59:17;;;;;;;12.03;6.27;;;28.70;99.90;;;;;;5012382;28;20188;-52
2023/06/12 08:01:43;;;;;;;10.13;6.00;;;28.90;99.90;;;;;;5011432;28;20556;-52
2023/06/12 08:04:12;;;;;;;7.83;6.07;;;29.00;99.90;;;;;;5010778;28;20434;-53
2023/06/12 08:06:42;;;;;;;8.07;5.93;;;29.20;99.90;;;;;;5011680;28;20640;-53
2023/06/12 08:09:11;;;;;;;9.97;5.80;;;29.40;99.90;;;;;;5011792;28;20454;-52
2023/06/12 08:11:37;;;;;;;13.77;5.97;;;29.70;99.90;;;;;;5011586;28;20446;-52
2023/06/12 08:14:02;;;;;;;9.97;6.03;;;30.00;99.90;;;;;;5011519;28;20410;-52
2023/06/12 08:16:28;;;;;;;7.80;5.67;;;30.10;99.90;;;;;;5011496;28;20423;-52
2023/06/12 08:18:53;;;;;;;9.60;6.40;;;30.20;99.90;;;;;;5011466;28;20180;-52
2023/06/12 08:21:19;;;;;;;8.73;6.00;;;30.40;99.90;;;;;;5002271;28;20640;-52
2023/06/12 08:23:45;;;;;;;9.00;5.70;;;30.30;99.90;;;;;;4994353;28;20585;-52
2023/06/12 08:26:10;;;;;;;8.60;5.97;;;30.20;99.90;;;;;;4998779;28;20191;-52
2023/06/12 08:28:37;;;;;;;13.73;6.07;;;30.10;99.90;;;;;;4994864;28;20188;-53
2023/06/12 08:31:03;;;;;;;17.30;6.20;;;30.20;99.90;;;;;;4994556;28;20599;-52
2023/06/12 08:33:29;;;;;;;11.33;5.50;;;30.20;99.90;;;;;;4994270;28;20442;-51
2023/06/12 08:35:55;;;;;;;7.90;5.00;;;30.40;99.90;;;;;;4995019;28;20200;-52
2023/06/12 08:38:21;;;;;;;11.73;5.43;;;30.70;99.90;;;;;;4998150;28;20493;-50
2023/06/12 08:40:47;;;;;;;13.47;5.90;;;30.70;99.90;;;;;;4994740;28;20215;-52
2023/06/12 08:43:12;;;;;;;6.70;5.60;;;30.90;99.90;;;;;;4994973;28;20184;-52
2023/06/12 08:45:45;;;;;;;12.03;5.53;;;31.00;99.90;;;;;;4994991;28;20723;-53
2023/06/12 08:48:15;;;;;;;17.13;5.47;;;31.10;99.90;;;;;;4994344;28;20317;-53
2023/06/12 08:50:42;;;;;;;6.23;5.43;;;31.20;99.90;;;;;;4994389;28;20921;-52
2023/06/12 08:53:08;;;;;;;7.90;5.23;;;31.50;99.90;;;;;;4993926;28;20502;-52
2023/06/12 08:55:39;;;;;;;9.30;5.43;;;31.60;99.90;;;;;;4995617;28;20740;-52
2023/06/12 08:58:07;;;;;;;6.00;5.03;;;31.80;99.90;;;;;;4994892;28;20205;-53
2023/06/12 09:00:32;;;;;;;10.67;5.40;;;31.90;99.90;;;;;;4996386;28;20942;-53
2023/06/12 09:03:00;;;;;;;6.27;5.67;;;31.90;99.90;;;;;;4998185;28;20444;-51
2023/06/12 09:05:37;;;;;;;8.80;5.93;;;32.10;99.90;;;;;;4998871;28;20283;-53
2023/06/12 09:08:04;;;;;;;9.97;6.47;;;32.40;99.90;;;;;;4995590;28;20435;-53
2023/06/12 09:10:33;;;;;;;6.60;5.70;;;32.50;99.90;;;;;;4994411;28;20439;-53
2023/06/12 09:13:02;;;;;;;12.33;5.70;;;32.50;99.90;;;;;;4993737;28;20755;-52
2023/06/12 09:15:28;;;;;;;7.10;5.40;;;31.90;99.90;;;;;;4995082;28;20445;-53
2023/06/12 09:17:55;;;;;;;7.80;5.53;;;32.10;99.90;;;;;;4997288;28;20507;-52
2023/06/12 09:20:33;;;;;;;6.50;5.27;;;32.30;99.90;;;;;;4999061;28;20272;-52
2023/06/12 09:23:00;;;;;;;8.53;5.00;;;32.40;99.90;;;;;;4997234;28;20513;-52
2023/06/12 09:25:42;;;;;;;9.23;5.33;;;32.60;99.90;;;;;;4997217;28;20436;-52
2023/06/12 09:28:09;;;;;;;8.20;5.20;;;32.90;99.90;;;;;;5000255;28;20789;-52
2023/06/12 09:30:41;;;;;;;8.50;5.17;;;32.90;99.90;;;;;;4998901;28;20836;-53
2023/06/12 09:33:10;;;;;;;7.57;4.90;;;33.00;99.90;;;;;;5001832;28;20771;-52
2023/06/12 09:36:02;;;;;;;10.47;4.63;;;33.10;99.90;;;;;;4997633;28;20460;-51
2023/06/12 09:38:32;;;;;;;13.80;4.53;;;33.20;99.90;;;;;;4996476;28;20479;-51
2023/06/12 09:41:00;;;;;;;12.40;4.90;;;33.20;99.90;;;;;;5004678;28;20470;-52
2023/06/12 09:43:30;;;;;;;5.00;4.60;;;32.80;99.90;;;;;;5001943;28;20946;-53
2023/06/12 09:45:57;;;;;;;5.80;4.57;;;32.70;99.90;;;;;;5003384;28;20967;-52
2023/06/12 09:48:23;;;;;;;6.67;5.97;;;33.00;99.90;;;;;;5004570;28;20458;-52
2023/06/12 09:50:49;;;;;;;8.20;4.47;;;33.00;99.90;;;;;;5013874;28;20913;-52
2023/06/12 09:53:16;;;;;;;7.80;5.03;;;33.10;99.90;;;;;;5013525;28;20239;-52
2023/06/12 09:55:44;;;;;;;6.33;4.53;;;33.20;99.90;;;;;;5014196;28;20543;-52
2023/06/12 09:58:13;;;;;;;5.57;4.60;;;33.40;99.90;;;;;;5013981;28;20422;-52
2023/06/12 10:00:39;;;;;;;9.20;4.60;;;33.50;99.90;;;;;;5013580;28;20458;-52
2023/06/12 10:03:09;;;;;;;8.53;4.53;;;33.50;99.90;;;;;;5013963;28;20415;-51
2023/06/12 10:05:40;;;;;;;6.37;4.60;;;33.40;99.90;;;;;;5013406;28;20801;-52
2023/06/12 10:08:07;;;;;;;9.63;4.67;;;33.40;99.90;;;;;;5013622;28;20446;-52
2023/06/12 10:10:36;;;;;;;5.70;4.97;;;33.20;99.90;;;;;;5013783;28;20419;-51
2023/06/12 10:13:02;;;;;;;7.33;4.47;;;33.00;99.90;;;;;;5013585;28;20821;-52
2023/06/12 10:15:30;;;;;;;6.50;4.97;;;32.90;99.90;;;;;;5013626;28;20437;-52
2023/06/12 10:17:57;;;;;;;8.80;4.50;;;33.30;99.90;;;;;;5013729;28;20418;-52
2023/06/12 10:20:24;;;;;;;7.30;4.20;;;33.60;99.90;;;;;;5013066;28;20462;-51
2023/06/12 10:22:54;;;;;;;6.00;4.40;;;33.80;99.90;;;;;;5013662;28;20498;-52
2023/06/12 10:25:21;;;;;;;6.13;4.60;;;33.50;99.90;;;;;;5013445;28;20411;-52
2023/06/12 10:27:47;;;;;;;12.17;4.77;;;33.20;99.90;;;;;;5012445;28;20419;-52
2023/06/12 10:30:16;;;;;;;12.33;4.70;;;33.40;99.90;;;;;;5013273;28;20510;-52
2023/06/12 10:32:43;;;;;;;4.60;3.97;;;33.70;99.90;;;;;;5005142;28;20978;-53
2023/06/12 10:35:09;;;;;;;5.03;4.53;;;33.70;99.90;;;;;;4996936;28;20432;-52
2023/06/12 10:37:44;;;;;;;5.37;4.80;;;33.70;99.90;;;;;;4999882;28;20411;-52
2023/06/12 10:40:21;;;;;;;7.93;5.00;;;33.80;99.90;;;;;;4996826;28;20512;-51
2023/06/12 10:43:04;;;;;;;4.90;4.40;;;34.00;99.90;;;;;;4996556;28;20447;-52
2023/06/12 10:45:31;;;;;;;4.97;4.47;;;33.60;99.90;;;;;;5002132;28;20907;-52
2023/06/12 10:48:06;;;;;;;9.63;4.53;;;33.70;99.90;;;;;;4999453;28;20452;-52
2023/06/12 10:50:36;;;;;;;6.07;4.67;;;34.30;99.90;;;;;;4997482;28;20452;-51
2023/06/12 10:53:04;;;;;;;12.00;4.93;;;34.90;99.90;;;;;;4996479;28;20514;-52
2023/06/12 10:55:32;;;;;;;8.00;4.13;;;35.30;99.90;;;;;;4997943;28;20451;-51
2023/06/12 10:58:06;;;;;;;8.03;4.83;;;35.20;99.90;;;;;;5005251;28;20442;-52
2023/06/12 11:00:36;;;;;;;7.40;4.97;;;35.20;99.90;;;;;;5000165;28;20530;-52
2023/06/12 11:03:03;;;;;;;6.83;4.83;;;35.20;99.90;;;;;;4996832;28;20446;-52
2023/06/12 11:05:30;;;;;;;11.80;4.83;;;35.30;99.90;;;;;;4997382;28;20498;-52
2023/06/12 11:08:02;;;;;;;10.60;4.80;;;35.20;99.90;;;;;;4990858;28;20447;-51
2023/06/12 11:10:29;;;;;;;7.10;4.10;;;34.60;99.90;;;;;;4991085;28;20432;-52
2023/06/12 11:12:55;;;;;;;12.17;4.20;;;34.40;99.90;;;;;;4991934;28;20905;-51
2023/06/12 11:15:23;;;;;;;7.77;4.47;;;34.10;99.90;;;;;;4992095;28;21125;-52
2023/06/12 11:17:52;;;;;;;6.10;4.80;;;34.20;99.90;;;;;;4993072;28;20531;-52
2023/06/12 11:20:19;;;;;;;5.63;4.30;;;34.40;99.90;;;;;;4992198;28;20467;-52
2023/06/12 11:22:48;;;;;;;7.23;4.23;;;34.40;99.90;;;;;;4992491;28;20827;-51
2023/06/12 11:25:16;;;;;;;8.20;3.87;;;34.70;99.90;;;;;;4999056;28;20439;-52
2023/06/12 11:27:42;;;;;;;6.07;3.87;;;34.80;99.90;;;;;;4998244;28;20447;-52
2023/06/12 11:30:13;;;;;;;7.40;3.93;;;34.80;99.90;;;;;;4998254;28;20443;-52
2023/06/12 11:32:40;;;;;;;6.50;4.73;;;34.70;99.90;;;;;;4995511;28;20495;-52
2023/06/12 11:35:09;;;;;;;4.77;3.67;;;34.70;99.90;;;;;;4995950;28;20474;-52
2023/06/12 11:37:36;;;;;;;10.17;3.67;;;34.50;99.90;;;;;;5006742;28;20934;-52
2023/06/12 11:40:11;;;;;;;7.87;3.80;;;34.50;99.90;;;;;;4997760;28;20871;-52
2023/06/12 11:42:40;;;;;;;8.63;3.77;;;34.50;99.90;;;;;;4999732;28;20474;-52
2023/06/12 11:45:09;;;;;;;6.73;3.90;;;34.80;99.90;;;;;;4994528;28;21009;-52
2023/06/12 11:47:36;;;;;;;3.90;3.60;;;34.80;99.90;;;;;;4998980;28;20443;-53
2023/06/12 11:50:07;;;;;;;7.93;3.90;;;35.10;99.90;;;;;;4995878;28;20448;-52
2023/06/12 11:52:35;;;;;;;6.00;3.50;;;34.70;99.90;;;;;;4995816;28;20491;-52
2023/06/12 11:55:04;;;;;;;5.07;3.77;;;34.80;99.90;;;;;;4995110;28;20436;-52
2023/06/12 11:57:31;;;;;;;9.77;3.67;;;35.20;99.90;;;;;;4995276;28;20420;-53
2023/06/12 11:59:57;;;;;;;4.00;3.70;;;35.20;99.90;;;;;;4998246;28;20525;-52
2023/06/12 12:02:33;;;;;;;8.07;3.70;;;35.20;99.90;;;;;;4998262;28;20444;-52
2023/06/12 12:05:03;;;;;;;4.27;3.40;;;35.10;99.90;;;;;;4998533;28;20947;-52
2023/06/12 12:07:31;;;;;;;5.03;3.67;;;34.90;99.90;;;;;;4995072;28;20459;-51
2023/06/12 12:10:11;;;;;;;6.40;3.30;;;34.90;99.90;;;;;;4995043;28;20452;-51
2023/06/12 12:12:50;;;;;;;5.83;3.70;;;34.90;99.90;;;;;;4994940;28;20435;-52
2023/06/12 12:15:22;;;;;;;9.60;3.50;;;35.00;99.90;;;;;;4995073;28;20955;-52
2023/06/12 12:17:48;;;;;;;4.43;3.50;;;34.90;99.90;;;;;;4995006;28;20447;-52
2023/06/12 12:20:15;;;;;;;9.53;4.20;;;35.10;99.90;;;;;;4996077;28;20481;-52
2023/06/12 12:22:42;;;;;;;6.60;3.80;;;35.40;99.90;;;;;;4994898;28;20308;-52
2023/06/12 12:25:13;;;;;;;5.87;3.80;;;35.60;99.90;;;;;;4994770;28;20474;-53
2023/06/12 12:27:39;;;;;;;7.30;3.67;;;35.60;99.90;;;;;;4995202;28;20455;-53
2023/06/12 12:30:05;;;;;;;5.50;3.93;;;35.70;99.90;;;;;;4994322;28;20506;-53
2023/06/12 12:32:32;;;;;;;6.80;3.53;;;35.70;99.90;;;;;;4994679;28;20177;-53
2023/06/12 12:34:57;;;;;;;6.27;3.63;;;35.80;99.90;;;;;;4994965;28;20490;-53
2023/06/12 12:37:24;;;;;;;4.30;3.73;;;35.90;99.90;;;;;;4994615;28;20430;-53
2023/06/12 12:39:49;;;;;;;4.00;3.37;;;35.70;99.90;;;;;;5002829;28;20751;-53
2023/06/12 12:42:16;;;;;;;6.80;3.30;;;35.70;99.90;;;;;;4998923;28;20434;-53
2023/06/12 12:44:42;;;;;;;9.10;4.27;;;35.60;99.90;;;;;;4994708;28;20602;-53
2023/06/12 12:47:08;;;;;;;4.53;3.57;;;35.50;99.90;;;;;;4998437;28;20428;-53
2023/06/12 12:49:33;;;;;;;3.97;3.47;;;35.20;99.90;;;;;;4995136;28;20217;-54